Time;durP1;ratioP1;P1;durP2;ratioP2;P2;SDS_P1;SDS_P2;PMS_P1;PMS_P2;Temp;Humidity;BMP_temperature;BMP_pressure;BME280_temperature;BME280_humidity;BME280_pressure;Samples;Min_cycle;Max_cycle;Signal;HPM_P1;HPM_P2
2022/08/24 03:49:50;;;;;;;;;4.00;4.00;;;;;22.79;62.72;101465.09;2680412;23;44874;-81
2022/08/24 03:51:00;;;;;;;;;3.00;2.75;;;;;22.78;62.62;101465.22;2410897;28;46195;-80
2022/08/24 03:52:11;;;;;;;;;6.75;3.75;;;;;22.78;62.94;101459.88;2409887;28;45389;-80
2022/08/24 03:53:21;;;;;;;;;4.00;3.50;;;;;22.79;63.24;101464.28;2412217;28;45324;-80
2022/08/24 03:54:32;;;;;;;;;2.25;2.25;;;;;22.79;62.73;101459.75;2412844;28;45219;-80
2022/08/24 03:55:42;;;;;;;;;3.25;3.25;;;;;22.77;62.89;101458.16;2412941;28;45476;-80
2022/08/24 03:56:53;;;;;;;;;4.00;3.75;;;;;22.77;62.74;101455.47;2412085;28;45144;-81
2022/08/24 03:58:03;;;;;;;;;3.25;3.25;;;;;22.77;63.29;101450.97;2415036;28;45367;-81
2022/08/24 03:59:13;;;;;;;;;3.50;3.50;;;;;22.77;62.41;101447.44;2417140;28;45279;-80
2022/08/24 04:00:24;;;;;;;;;3.25;3.25;;;;;22.76;63.03;101448.41;2412804;28;46315;-80
2022/08/24 04:01:34;;;;;;;;;3.50;3.50;;;;;22.76;62.51;101453.78;2412992;28;44740;-80
2022/08/24 04:02:45;;;;;;;;;2.75;2.50;;;;;22.74;63.08;101453.03;2412847;28;46332;-80
2022/08/24 04:03:55;;;;;;;;;4.00;4.00;;;;;22.74;62.52;101445.84;2412529;28;44702;-80
2022/08/24 04:05:06;;;;;;;;;5.00;4.00;;;;;22.73;62.94;101452.16;2412400;28;46084;-81
2022/08/24 04:06:18;;;;;;;;;2.25;2.25;;;;;22.74;62.76;101451.22;2412840;28;44646;-80
2022/08/24 04:07:28;;;;;;;;;3.00;3.00;;;;;22.74;63.03;101447.69;2405270;28;46635;-80
2022/08/24 04:08:40;;;;;;;;;5.25;3.00;;;;;22.73;62.83;101448.63;2414986;28;45361;-80
2022/08/24 04:09:50;;;;;;;;;4.50;4.00;;;;;22.72;63.01;101452.28;2419141;28;46193;-81
2022/08/24 04:11:02;;;;;;;;;3.75;3.75;;;;;22.73;62.55;101459.34;2412499;28;45241;-80
2022/08/24 04:12:12;;;;;;;;;3.00;3.00;;;;;22.71;62.54;101446.06;2412748;28;45652;-80
2022/08/24 04:13:24;;;;;;;;;5.75;4.00;;;;;22.72;62.62;101449.63;2412135;28;45297;-81
2022/08/24 04:14:34;;;;;;;;;4.00;4.00;;;;;22.70;62.67;101447.91;2412018;28;45216;-80
2022/08/24 04:15:45;;;;;;;;;3.50;3.50;;;;;22.69;62.52;101454.22;2412832;28;45231;-80
2022/08/24 04:16:55;;;;;;;;;4.50;4.00;;;;;22.70;62.65;101449.72;2412738;28;45545;-80
2022/08/24 04:18:07;;;;;;;;;3.50;3.50;;;;;22.70;63.20;101452.38;2413074;28;45236;-80
2022/08/24 04:19:17;;;;;;;;;3.00;2.75;;;;;22.70;63.21;101455.94;2420518;28;46412;-80
2022/08/24 04:20:27;;;;;;;;;3.25;3.25;;;;;22.69;63.41;101456.88;2417427;28;45329;-80
2022/08/24 04:21:38;;;;;;;;;4.00;3.75;;;;;22.69;63.09;101459.56;2412621;28;45811;-80
2022/08/24 04:22:50;;;;;;;;;3.75;3.75;;;;;22.69;62.67;101459.56;2412926;28;45310;-80
2022/08/24 04:24:02;;;;;;;;;3.50;3.00;;;;;22.67;62.71;101461.47;2412063;28;45678;-80
2022/08/24 04:25:12;;;;;;;;;3.25;3.00;;;;;22.67;62.99;101461.47;2411993;28;45230;-80
2022/08/24 04:26:24;;;;;;;;;5.00;5.00;;;;;22.67;62.50;101456.13;2412128;28;45471;-80
2022/08/24 04:27:36;;;;;;;;;4.00;4.00;;;;;22.65;62.75;101458.06;2412681;28;44748;-80
2022/08/24 04:28:47;;;;;;;;;4.00;2.50;;;;;22.66;62.92;101454.44;2412416;28;45497;-80
2022/08/24 04:29:57;;;;;;;;;5.50;5.50;;;;;22.64;62.62;101460.88;2412457;28;45188;-80
2022/08/24 04:31:08;;;;;;;;;4.50;2.75;;;;;22.65;62.71;101458.06;2412590;28;45369;-81
2022/08/24 04:32:18;;;;;;;;;5.25;4.50;;;;;22.63;63.16;101457.31;2412231;28;44785;-80
2022/08/24 04:33:30;;;;;;;;;5.50;4.00;;;;;22.65;62.82;101462.56;2412134;28;45419;-80
2022/08/24 04:34:44;;;;;;;;;5.00;4.00;;;;;22.65;63.40;101459.88;2411720;28;45173;-81
2022/08/24 04:35:54;;;;;;;;;3.00;3.00;;;;;22.63;63.36;101461.81;2411675;28;45460;-81
2022/08/24 04:37:05;;;;;;;;;5.50;3.50;;;;;22.62;62.85;101458.28;2412319;28;45231;-81
2022/08/24 04:38:18;;;;;;;;;3.25;3.00;;;;;22.62;62.73;101460.13;2412402;28;45488;-81
2022/08/24 04:39:28;;;;;;;;;6.00;4.75;;;;;22.62;63.21;101452.91;2412766;28;45466;-81
2022/08/24 04:40:41;;;;;;;;;5.00;4.00;;;;;22.60;62.93;101455.72;2412425;28;46195;-81
2022/08/24 04:41:51;;;;;;;;;4.25;4.25;;;;;22.62;62.97;101462.81;2409334;28;45161;-80
2022/08/24 04:43:01;;;;;;;;;5.50;4.25;;;;;22.60;63.36;101457.53;2411097;28;46657;-80
2022/08/24 04:44:12;;;;;;;;;3.50;3.25;;;;;22.60;63.31;101457.53;2420745;28;44569;-80
2022/08/24 04:45:22;;;;;;;;;4.25;4.25;;;;;22.58;63.22;101452.31;2420438;28;45206;-80
2022/08/24 04:46:32;;;;;;;;;4.75;4.25;;;;;22.59;63.17;101453.16;2414869;28;45236;-80
2022/08/24 04:47:44;;;;;;;;;4.50;3.50;;;;;22.57;62.72;101453.25;2413016;28;45243;-80
2022/08/24 04:48:54;;;;;;;;;3.75;3.75;;;;;22.57;62.93;101452.44;2412636;28;45204;-81
2022/08/24 04:50:05;;;;;;;;;3.00;2.50;;;;;22.57;63.48;101455.09;2411724;28;45479;-80
2022/08/24 04:51:18;;;;;;;;;5.75;5.50;;;;;22.56;63.39;101453.38;2412413;28;45297;-80
2022/08/24 04:52:29;;;;;;;;;4.75;4.00;;;;;22.55;62.85;101449.84;2412648;28;45426;-81
2022/08/24 04:53:39;;;;;;;;;3.00;3.00;;;;;22.54;63.54;101461.53;2412551;28;45277;-81
2022/08/24 04:54:50;;;;;;;;;4.00;3.00;;;;;22.54;63.09;101452.66;2412438;28;46467;-80
2022/08/24 04:56:01;;;;;;;;;4.50;4.50;;;;;22.54;63.04;101453.50;2412673;28;45143;-80
2022/08/24 04:57:11;;;;;;;;;3.75;3.75;;;;;22.54;62.78;101452.66;2411817;28;48364;-80
2022/08/24 04:58:22;;;;;;;;;4.00;4.00;;;;;22.53;62.82;101450.91;2409757;28;44793;-80
2022/08/24 04:59:32;;;;;;;;;4.00;4.00;;;;;22.52;63.49;101452.75;2412397;28;45200;-80
2022/08/24 05:00:43;;;;;;;;;4.00;4.00;;;;;22.53;63.02;101454.47;2412693;28;45157;-80
2022/08/24 05:01:53;;;;;;;;;4.25;4.00;;;;;22.52;63.54;101454.59;2411535;28;46272;-80
2022/08/24 05:03:05;;;;;;;;;4.00;3.25;;;;;22.52;63.50;101457.25;2412110;28;45294;-80
2022/08/24 05:04:15;;;;;;;;;5.25;3.25;;;;;22.50;63.44;101460.03;2412426;28;46690;-80
2022/08/24 05:05:25;;;;;;;;;5.25;4.50;;;;;22.51;63.54;101455.53;2412321;28;45537;-80
2022/08/24 05:06:36;;;;;;;;;4.75;4.75;;;;;22.51;63.07;101459.09;2412168;28;45402;-80
2022/08/24 05:07:46;;;;;;;;;3.75;3.75;;;;;22.49;62.93;101456.50;2412158;28;44808;-80
2022/08/24 05:08:57;;;;;;;;;4.00;4.00;;;;;22.48;63.44;101460.16;2412352;28;46158;-81
2022/08/24 05:10:09;;;;;;;;;5.00;5.00;;;;;22.48;63.45;101462.84;2412319;28;44716;-80
2022/08/24 05:11:22;;;;;;;;;5.50;3.75;;;;;22.48;63.70;101453.94;2412103;28;46242;-80
2022/08/24 05:12:32;;;;;;;;;4.00;4.00;;;;;22.47;63.16;101454.94;2418056;28;45424;-80
2022/08/24 05:13:43;;;;;;;;;4.00;4.00;;;;;22.47;63.12;101455.75;2418132;28;45230;-80
2022/08/24 05:14:54;;;;;;;;;4.00;4.00;;;;;22.44;63.23;101453.31;2412477;28;45282;-81
2022/08/24 05:16:11;;;;;;;;;3.25;3.25;;;;;22.45;63.67;101457.69;2413007;28;45300;-81
2022/08/24 05:17:21;;;;;;;;;3.25;3.25;;;;;22.44;63.84;101456.00;2421915;28;44609;-80
2022/08/24 05:18:32;;;;;;;;;4.50;3.25;;;;;22.44;63.75;101456.00;2411983;28;45254;-80
2022/08/24 05:19:42;;;;;;;;;6.25;4.50;;;;;22.45;63.56;101459.50;2412341;28;45394;-80
2022/08/24 05:20:53;;;;;;;;;5.00;5.00;;;;;22.45;63.45;101463.06;2412532;28;45362;-80
2022/08/24 05:22:04;;;;;;;;;5.00;5.00;;;;;22.44;63.91;101461.34;2412396;28;45201;-80
2022/08/24 05:23:14;;;;;;;;;3.50;3.50;;;;;22.46;63.22;101466.59;2415784;28;45351;-81
2022/08/24 05:24:25;;;;;;;;;4.25;4.25;;;;;22.45;63.89;101460.38;2421711;28;45219;-80
2022/08/24 05:25:36;;;;;;;;;7.00;5.25;;;;;22.44;63.45;101461.34;2420377;28;46214;-81
2022/08/24 05:26:46;;;;;;;;;5.00;5.00;;;;;22.43;63.65;101459.63;2417757;28;45421;-80
2022/08/24 05:27:57;;;;;;;;;5.50;5.00;;;;;22.44;63.80;101461.34;2411942;28;46183;-80
2022/08/24 05:29:07;;;;;;;;;5.50;5.50;;;;;22.46;63.38;101462.09;2412340;28;45279;-80
2022/08/24 05:30:17;;;;;;;;;6.00;6.00;;;;;22.46;63.47;101467.44;2418030;28;46568;-81
2022/08/24 05:31:31;;;;;;;;;4.75;4.75;;;;;22.45;63.80;101463.06;2420101;28;45171;-81
2022/08/24 05:32:41;;;;;;;;;8.25;7.75;;;;;22.46;63.67;101470.13;2415701;28;45462;-81
2022/08/24 05:33:52;;;;;;;;;8.75;7.75;;;;;22.45;63.59;101470.22;2419550;28;45441;-80
2022/08/24 05:35:03;;;;;;;;;7.75;7.25;;;;;22.45;64.18;101473.75;2421464;28;46098;-80
2022/08/24 05:36:21;;;;;;;;;9.75;8.00;;;;;22.46;63.24;101469.28;2413387;28;44710;-80
2022/08/24 05:37:37;;;;;;;;;6.75;6.75;;;;;22.46;63.70;101474.63;2411830;28;45214;-80
2022/08/24 05:38:50;;;;;;;;;5.50;5.00;;;;;22.45;64.18;101465.72;2412346;28;45266;-80
2022/08/24 05:40:07;;;;;;;;;6.00;6.00;;;;;22.46;63.42;101475.50;2412822;28;46323;-80
2022/08/24 05:41:18;;;;;;;;;6.25;5.00;;;;;22.46;64.32;101467.44;2412185;28;44733;-80
2022/08/24 05:42:28;;;;;;;;;7.25;6.50;;;;;22.46;64.02;101470.13;2411494;28;45401;-81
2022/08/24 05:43:39;;;;;;;;;12.25;7.00;;;;;22.48;63.80;101473.56;2412204;28;45259;-80
2022/08/24 05:44:49;;;;;;;;;6.00;5.25;;;;;22.46;64.11;101472.81;2412172;28;45406;-81
2022/08/24 05:45:59;;;;;;;;;5.00;5.00;;;;;22.46;64.12;101475.50;2412291;28;45202;-81
2022/08/24 05:47:10;;;;;;;;;6.75;6.75;;;;;22.46;64.43;101470.13;2411986;28;45411;-80
2022/08/24 05:48:20;;;;;;;;;8.75;6.00;;;;;22.47;64.18;101471.81;2412376;28;44836;-81
2022/08/24 05:49:30;;;;;;;;;9.00;7.25;;;;;22.48;64.34;101473.56;2411658;28;45288;-81
2022/08/24 05:50:41;;;;;;;;;4.50;4.50;;;;;22.49;63.86;101474.41;2411638;28;45270;-81
2022/08/24 05:51:52;;;;;;;;;7.25;5.00;;;;;22.49;63.94;101474.41;2412078;28;45540;-81
2022/08/24 05:53:03;;;;;;;;;5.75;5.75;;;;;22.51;64.09;101471.63;2411783;28;45231;-80
2022/08/24 05:54:13;;;;;;;;;7.00;5.00;;;;;22.51;64.28;101476.97;2411971;28;46017;-80
2022/08/24 05:55:24;;;;;;;;;7.50;6.50;;;;;22.51;64.44;101471.63;2412155;28;45305;-81
2022/08/24 05:56:34;;;;;;;;;6.00;6.00;;;;;22.51;64.22;101476.97;2412036;28;46120;-81
2022/08/24 05:57:45;;;;;;;;;8.25;6.50;;;;;22.52;64.05;101470.66;2411479;28;46095;-80
2022/08/24 05:58:56;;;;;;;;;7.50;7.50;;;;;22.53;64.11;101475.03;2412020;28;46028;-81
2022/08/24 06:00:09;;;;;;;;;7.25;5.00;;;;;22.53;64.12;101473.22;2412328;28;45314;-80
2022/08/24 06:01:23;;;;;;;;;5.00;5.00;;;;;22.52;64.66;101479.53;2411924;28;45374;-80
2022/08/24 06:02:34;;;;;;;;;6.75;6.75;;;;;22.53;64.18;101475.03;2412144;28;45263;-80
2022/08/24 06:03:44;;;;;;;;;7.75;6.25;;;;;22.54;64.25;101479.44;2412014;28;45271;-81
2022/08/24 06:04:54;;;;;;;;;9.00;5.25;;;;;22.55;64.41;101478.44;2411957;28;45243;-80
2022/08/24 06:06:07;;;;;;;;;7.00;6.00;;;;;22.56;63.97;101477.50;2411128;28;46503;-80
2022/08/24 06:07:17;;;;;;;;;6.75;6.75;;;;;22.56;64.45;101480.16;2411295;28;45324;-81
2022/08/24 06:08:29;;;;;;;;;4.25;4.25;;;;;22.58;64.62;101481.78;2412028;28;45270;-80
2022/08/24 06:09:41;;;;;;;;;6.50;6.50;;;;;22.59;64.24;101490.66;2414425;28;45366;-81
2022/08/24 06:10:51;;;;;;;;;7.00;6.00;;;;;22.58;64.53;101479.09;2411960;28;46262;-81
2022/08/24 06:12:02;;;;;;;;;5.25;4.50;;;;;22.61;64.42;101483.38;2412103;28;45400;-80
2022/08/24 06:13:13;;;;;;;;;5.50;5.50;;;;;22.60;64.06;101479.84;2411916;28;46509;-81
2022/08/24 06:14:23;;;;;;;;;6.25;6.25;;;;;22.61;63.75;101480.69;2412101;28;45319;-81
2022/08/24 06:15:34;;;;;;;;;6.00;5.25;;;;;22.63;64.13;101484.09;2412050;28;46581;-80
2022/08/24 06:16:47;;;;;;;;;9.25;6.50;;;;;22.64;64.08;101474.25;2410306;28;44837;-80
2022/08/24 06:17:57;;;;;;;;;6.25;6.25;;;;;22.65;64.38;101481.31;2417047;28;46423;-81
2022/08/24 06:19:10;;;;;;;;;6.00;6.00;;;;;22.65;64.18;101476.81;2418885;28;45432;-81
2022/08/24 06:20:21;;;;;;;;;6.25;5.00;;;;;22.67;64.25;101482.03;2411393;28;46021;-81
2022/08/24 06:21:32;;;;;;;;;6.75;5.00;;;;;22.70;63.84;101481.88;2411182;28;45307;-82
2022/08/24 06:22:43;;;;;;;;;5.25;5.25;;;;;22.69;63.95;101483.69;2411378;28;46235;-81
2022/08/24 06:23:54;;;;;;;;;5.50;5.00;;;;;22.70;63.87;101482.72;2412038;28;44680;-81
2022/08/24 06:28:03;;;;;;;;;7.50;5.00;;;;;22.75;63.89;101476.16;2412793;28;45402;-80
2022/08/24 06:29:13;;;;;;;;;4.75;4.75;;;;;22.77;64.07;101488.47;2423289;28;45222;-80
2022/08/24 06:30:24;;;;;;;;;5.25;5.00;;;;;22.78;63.95;101483.97;2414823;28;45271;-81
2022/08/24 06:31:40;;;;;;;;;8.00;6.50;;;;;22.79;63.89;101486.53;2413238;28;45161;-81
2022/08/24 06:32:50;;;;;;;;;5.00;5.00;;;;;22.79;63.26;101486.53;2415012;28;46705;-81
2022/08/24 06:34:00;;;;;;;;;5.50;5.00;;;;;22.83;63.69;101487.19;2413385;28;45203;-81
2022/08/24 06:35:11;;;;;;;;;4.75;4.00;;;;;22.85;63.38;101493.28;2409741;28;45470;-81
2022/08/24 06:36:22;;;;;;;;;5.25;5.25;;;;;22.85;63.49;101495.09;2413303;28;45442;-81
2022/08/24 06:37:32;;;;;;;;;7.75;7.75;;;;;22.87;63.45;101487.78;2413548;28;45172;-81
2022/08/24 06:38:42;;;;;;;;;6.25;5.00;;;;;22.88;62.87;101486.84;2413388;28;44642;-81
2022/08/24 06:39:54;;;;;;;;;4.25;4.00;;;;;22.89;63.06;101489.38;2413450;28;46341;-81
2022/08/24 06:41:04;;;;;;;;;5.75;5.00;;;;;22.91;62.83;101486.63;2413466;28;45238;-81
2022/08/24 06:42:15;;;;;;;;;8.50;8.25;;;;;22.93;62.57;101482.84;2413241;28;45417;-81
2022/08/24 06:43:25;;;;;;;;;8.00;5.50;;;;;22.95;62.67;101487.22;2413499;28;44603;-81
2022/08/24 06:44:36;;;;;;;;;7.75;5.50;;;;;22.96;62.55;101481.78;2413392;28;45468;-81
2022/08/24 06:45:47;;;;;;;;;6.25;5.75;;;;;23.01;62.58;101484.97;2413574;28;45387;-81
2022/08/24 06:46:57;;;;;;;;;5.25;5.25;;;;;23.01;62.57;101484.97;2413448;28;45684;-81
2022/08/24 06:48:08;;;;;;;;;5.00;4.50;;;;;23.03;62.82;101484.84;2411784;28;44733;-81
2022/08/24 06:49:18;;;;;;;;;5.75;5.00;;;;;23.07;62.62;101483.63;2418802;28;45383;-81
2022/08/24 06:50:29;;;;;;;;;5.25;5.25;;;;;23.09;62.62;101475.50;2417200;28;45457;-81
2022/08/24 06:51:39;;;;;;;;;4.00;4.00;;;;;23.12;62.89;101477.94;2413451;28;46477;-81
2022/08/24 06:52:49;;;;;;;;;4.25;4.25;;;;;23.15;62.38;101481.25;2417653;28;45331;-81
2022/08/24 06:54:00;;;;;;;;;6.00;6.00;;;;;23.18;62.18;101479.28;2415959;28;45505;-81
2022/08/24 06:55:10;;;;;;;;;7.00;5.50;;;;;23.21;62.74;101479.06;2413523;28;45361;-81
2022/08/24 06:56:21;;;;;;;;;7.50;7.00;;;;;23.24;62.62;101478.81;2407040;28;45381;-81
2022/08/24 06:57:31;;;;;;;;;8.50;6.00;;;;;23.26;62.42;101484.94;2411373;28;45193;-81
2022/08/24 06:58:42;;;;;;;;;7.50;6.75;;;;;23.30;62.37;101483.72;2412933;28;45539;-81
2022/08/24 06:59:53;;;;;;;;;8.00;7.00;;;;;23.32;62.33;101483.59;2413508;28;45161;-81
2022/08/24 07:01:15;;;;;;;;;3.50;3.00;;;;;23.35;62.21;101486.06;2404234;28;45396;-81
2022/08/24 07:02:25;;;;;;;;;6.00;5.00;;;;;23.36;62.19;101477.88;2410839;28;45257;-81
2022/08/24 07:03:36;;;;;;;;;8.50;8.50;;;;;23.38;62.02;101483.16;2410497;28;46671;-81
2022/08/24 07:04:47;;;;;;;;;8.75;8.25;;;;;23.40;61.70;101481.19;2403796;28;45264;-81
2022/08/24 07:05:58;;;;;;;;;8.00;6.00;;;;;23.42;61.81;101481.94;2409774;28;45454;-81
2022/08/24 07:07:08;;;;;;;;;6.00;5.75;;;;;23.44;61.52;101477.31;2404393;28;45355;-81
2022/08/24 07:08:19;;;;;;;;;7.00;7.00;;;;;23.47;61.54;101481.56;2409104;28;45548;-81
2022/08/24 07:09:30;;;;;;;;;7.00;7.00;;;;;23.51;61.89;101479.56;2403868;28;45446;-81
2022/08/24 07:10:41;;;;;;;;;6.00;6.00;;;;;23.53;61.35;101478.47;2411923;28;45282;-81
2022/08/24 07:11:51;;;;;;;;;10.25;8.50;;;;;23.56;61.87;101475.53;2409213;28;45496;-81
2022/08/24 07:13:02;;;;;;;;;9.75;8.00;;;;;23.56;61.71;101475.53;2410133;28;45360;-82
2022/08/24 07:14:13;;;;;;;;;8.50;6.75;;;;;23.59;61.38;101483.34;2403929;28;45260;-81
2022/08/24 07:15:24;;;;;;;;;6.50;6.50;;;;;23.60;61.43;101474.34;2412651;28;46538;-81
2022/08/24 07:16:34;;;;;;;;;8.00;8.00;;;;;23.64;61.36;101485.69;2411334;28;45152;-81
2022/08/24 07:17:45;;;;;;;;;4.25;4.25;;;;;23.65;61.25;101479.34;2406019;28;45474;-81
2022/08/24 07:18:56;;;;;;;;;8.25;7.00;;;;;23.68;60.85;101483.63;2407466;28;45145;-81
2022/08/24 07:20:08;;;;;;;;;6.00;5.00;;;;;23.70;61.18;101484.34;2406621;28;45439;-81
2022/08/24 07:21:18;;;;;;;;;6.00;5.00;;;;;23.72;61.13;101477.03;2406817;28;45480;-81
2022/08/24 07:22:29;;;;;;;;;7.25;5.75;;;;;23.74;60.88;101487.63;2412852;28;45622;-81
2022/08/24 07:23:39;;;;;;;;;4.00;4.00;;;;;23.76;60.85;101483.84;2413247;28;44797;-81
2022/08/24 07:24:49;;;;;;;;;3.00;3.00;;;;;23.79;60.36;101489.00;2413046;28;46323;-81
2022/08/24 07:26:08;;;;;;;;;3.00;3.00;;;;;23.81;60.52;101492.41;2412635;28;45385;-81
2022/08/24 07:27:18;;;;;;;;;5.00;5.00;;;;;23.82;60.29;101478.03;2413250;28;46379;-81
2022/08/24 07:28:29;;;;;;;;;5.75;4.75;;;;;23.86;59.80;101488.50;2413202;28;45333;-81
2022/08/24 07:29:40;;;;;;;;;3.50;3.50;;;;;23.88;59.59;101490.09;2411410;28;45374;-81
2022/08/24 07:30:50;;;;;;;;;3.50;3.50;;;;;23.89;59.98;101486.44;2403795;28;45228;-81
2022/08/24 07:32:01;;;;;;;;;4.25;3.75;;;;;23.93;59.97;101489.72;2411423;28;45287;-81
2022/08/24 07:33:11;;;;;;;;;6.00;4.25;;;;;23.94;59.79;101484.25;2406892;28;45442;-81
2022/08/24 07:34:22;;;;;;;;;5.75;4.50;;;;;23.99;59.58;101491.09;2403876;28;45442;-81
2022/08/24 07:35:33;;;;;;;;;5.50;4.25;;;;;24.01;59.51;101492.66;2413136;28;45279;-81
2022/08/24 07:36:43;;;;;;;;;1.00;1.00;;;;;24.05;59.43;101490.63;2412980;28;46704;-81
2022/08/24 07:37:55;;;;;;;;;3.75;3.50;;;;;24.06;59.34;101489.63;2413193;28;45442;-81
2022/08/24 07:39:06;;;;;;;;;6.00;5.00;;;;;24.10;59.22;101492.94;2412479;28;46446;-81
2022/08/24 07:40:17;;;;;;;;;6.00;5.00;;;;;24.12;59.46;101494.53;2413098;28;45581;-81
2022/08/24 07:41:28;;;;;;;;;5.00;4.50;;;;;24.15;59.22;101488.06;2412098;28;46512;-81
2022/08/24 07:42:39;;;;;;;;;6.25;6.00;;;;;24.19;58.97;101494.88;2410087;28;45502;-81
2022/08/24 07:43:50;;;;;;;;;6.00;5.00;;;;;24.21;59.10;101495.59;2406368;28;46469;-81
2022/08/24 07:45:00;;;;;;;;;5.00;4.00;;;;;24.24;59.03;101486.44;2414036;28;45421;-81
2022/08/24 07:46:12;;;;;;;;;5.75;3.75;;;;;24.27;58.41;101488.94;2420729;28;45404;-81
2022/08/24 07:47:22;;;;;;;;;5.00;4.25;;;;;24.28;58.81;101488.78;2413169;28;45313;-81
2022/08/24 07:48:33;;;;;;;;;5.50;3.75;;;;;24.31;58.91;101497.56;2422503;28;46378;-81
2022/08/24 07:49:44;;;;;;;;;4.00;3.00;;;;;24.33;58.26;101495.63;2414166;28;45252;-82
2022/08/24 07:50:54;;;;;;;;;5.00;4.00;;;;;24.35;57.98;101494.53;2412179;28;45459;-82
2022/08/24 07:52:04;;;;;;;;;4.75;3.25;;;;;24.37;58.08;101492.56;2412663;28;45227;-82
2022/08/24 07:53:15;;;;;;;;;5.00;4.00;;;;;24.39;58.09;101495.16;2415505;28;45469;-82
2022/08/24 07:54:27;;;;;;;;;4.00;4.00;;;;;24.42;58.07;101500.25;2421352;28;45215;-81
2022/08/24 07:55:38;;;;;;;;;4.00;4.00;;;;;24.43;58.27;101496.59;2412359;28;45578;-82
2022/08/24 07:56:49;;;;;;;;;5.00;3.00;;;;;24.48;58.31;101501.59;2412115;28;45400;-81
2022/08/24 07:58:00;;;;;;;;;3.50;3.00;;;;;24.50;58.06;101508.56;2408274;28;47142;-81
2022/08/24 07:59:10;;;;;;;;;4.00;2.25;;;;;24.52;57.93;101499.53;2414061;28;45253;-82
2022/08/24 08:00:21;;;;;;;;;4.75;4.00;;;;;24.54;57.95;101505.63;2418650;28;45457;-82
2022/08/24 08:01:32;;;;;;;;;4.25;4.25;;;;;24.56;57.20;101506.34;2406584;28;45378;-81
2022/08/24 08:02:45;;;;;;;;;3.00;3.00;;;;;24.58;57.71;101507.06;2403397;28;46337;-82
2022/08/24 08:03:55;;;;;;;;;4.50;2.75;;;;;24.61;57.39;101510.38;2410280;28;44610;-82
2022/08/24 08:05:06;;;;;;;;;3.25;3.25;;;;;24.61;57.45;101510.38;2412448;28;45468;-81
2022/08/24 08:06:18;;;;;;;;;4.00;4.00;;;;;24.64;56.97;101514.66;2412256;28;44781;-82
2022/08/24 08:07:28;;;;;;;;;4.00;4.00;;;;;24.65;56.83;101508.28;2412826;28;45384;-82
2022/08/24 08:08:40;;;;;;;;;5.00;4.00;;;;;24.67;56.82;101516.25;2412753;28;44768;-82
2022/08/24 08:09:51;;;;;;;;;4.00;4.00;;;;;24.66;56.65;101507.31;2404886;28;45404;-82
2022/08/24 08:11:02;;;;;;;;;4.00;2.75;;;;;24.69;56.79;101517.78;2407913;28;44624;-82
2022/08/24 08:12:13;;;;;;;;;3.00;3.00;;;;;24.70;56.57;101518.66;2412782;28;46399;-82
2022/08/24 08:13:23;;;;;;;;;2.75;2.75;;;;;24.70;56.54;101513.28;2412690;28;45361;-82
2022/08/24 08:14:34;;;;;;;;;4.25;4.00;;;;;24.71;56.69;101515.00;2412466;28;45415;-82
2022/08/24 08:15:45;;;;;;;;;3.25;3.25;;;;;24.72;56.21;101517.53;2405927;28;45332;-81
2022/08/24 08:16:55;;;;;;;;;3.00;2.50;;;;;24.72;56.56;101522.91;2408417;28;46426;-81
2022/08/24 08:18:06;;;;;;;;;5.00;3.00;;;;;24.75;56.66;101515.59;2412798;28;45136;-81
2022/08/24 08:19:16;;;;;;;;;4.50;4.50;;;;;24.78;56.28;101524.25;2411449;28;45392;-81
2022/08/24 08:20:27;;;;;;;;;3.00;3.00;;;;;24.79;56.45;101520.56;2403370;28;45191;-82
2022/08/24 08:24:44;;;;;;;;;4.75;3.00;;;;;24.88;56.02;101518.13;2409167;28;45232;-81
2022/08/24 08:25:56;;;;;;;;;3.00;3.00;;;;;24.91;55.85;101524.13;2412780;28;45282;-81
2022/08/24 08:27:07;;;;;;;;;3.00;2.00;;;;;24.94;55.53;101525.69;2412690;28;46224;-81
2022/08/24 08:28:18;;;;;;;;;3.00;3.00;;;;;24.97;55.76;101524.56;2412751;28;44689;-81
2022/08/24 08:29:32;;;;;;;;;3.25;3.25;;;;;24.99;55.92;101525.31;2410775;28;46145;-81
2022/08/24 08:30:43;;;;;;;;;4.25;2.50;;;;;25.00;55.65;101525.22;2408767;28;45567;-81
2022/08/24 08:31:54;;;;;;;;;1.00;1.00;;;;;25.02;55.35;101519.69;2411676;28;47171;-81
2022/08/24 08:33:05;;;;;;;;;3.50;3.50;;;;;25.04;55.71;101525.78;2407759;28;45497;-81
2022/08/24 08:34:15;;;;;;;;;5.00;3.00;;;;;25.06;55.79;101518.47;2412897;28;47455;-81
2022/08/24 08:35:26;;;;;;;;;3.50;3.50;;;;;25.07;55.60;101517.47;2415955;28;45482;-81
2022/08/24 08:36:39;;;;;;;;;3.00;2.00;;;;;25.12;55.35;101530.53;2410054;28;46033;-81
2022/08/24 08:37:49;;;;;;;;;3.75;3.75;;;;;25.13;55.73;101522.38;2412284;28;45224;-81
2022/08/24 08:39:00;;;;;;;;;2.75;2.75;;;;;25.15;55.21;101519.53;2415670;28;46288;-81
2022/08/24 08:40:37;;;;;;;;;2.00;2.00;;;;;25.20;55.30;101525.38;2411816;28;45340;-81
2022/08/24 08:42:16;;;;;;;;;3.50;3.50;;;;;25.23;55.05;101524.28;2392784;28;46253;-81
2022/08/24 08:43:56;;;;;;;;;4.50;2.00;;;;;25.24;54.80;101523.28;2409612;28;45334;-80
2022/08/24 08:45:30;;;;;;;;;3.25;2.25;;;;;25.26;54.87;101518.66;2412587;28;45401;-81
2022/08/24 08:47:08;;;;;;;;;1.00;1.00;;;;;25.29;54.58;101521.06;2406082;28;45236;-81
2022/08/24 08:48:50;;;;;;;;;3.00;3.00;;;;;25.31;54.63;101510.19;2403153;28;45394;-81
2022/08/24 08:50:09;;;;;;;;;2.50;2.50;;;;;25.31;54.79;101521.78;2411350;28;45168;-80
2022/08/24 08:51:19;;;;;;;;;2.00;2.00;;;;;25.32;54.83;101523.50;2411969;28;46102;-80
2022/08/24 08:52:56;;;;;;;;;2.50;2.50;;;;;25.35;54.65;101517.88;2412719;28;45240;-80
2022/08/24 08:54:21;;;;;;;;;2.75;2.75;;;;;25.36;54.80;101519.56;2412157;28;45461;-81
2022/08/24 08:55:41;;;;;;;;;5.50;4.00;;;;;25.39;54.45;101519.31;2412728;28;44602;-80
2022/08/24 08:57:11;;;;;;;;;2.00;2.00;;;;;25.39;54.34;101518.44;2412404;28;45342;-81
2022/08/24 08:58:52;;;;;;;;;5.75;4.00;;;;;25.41;54.29;101513.78;2408626;28;45177;-80
2022/08/24 09:00:11;;;;;;;;;3.00;3.00;;;;;25.40;54.27;101509.41;2412557;28;46487;-80
2022/08/24 09:01:43;;;;;;;;;2.75;2.75;;;;;25.44;53.51;101518.03;2412170;28;44813;-81
2022/08/24 09:03:25;;;;;;;;;2.50;2.00;;;;;25.46;53.54;101514.25;2412482;28;45422;-81
2022/08/24 09:05:08;;;;;;;;;3.75;2.25;;;;;25.48;53.66;101514.97;2409465;28;45169;-81
2022/08/24 09:06:37;;;;;;;;;6.25;5.75;;;;;25.50;53.58;101515.72;2407309;28;45406;-81
2022/08/24 09:08:27;;;;;;;;;3.75;2.75;;;;;25.52;54.16;101512.88;2412511;28;45440;-80
2022/08/24 09:10:09;;;;;;;;;2.75;2.75;;;;;25.57;53.99;101518.72;2412148;28;47493;-80
2022/08/24 09:11:42;;;;;;;;;4.00;4.00;;;;;25.60;53.23;101513.09;2410149;28;45208;-80
2022/08/24 09:13:06;;;;;;;;;4.50;3.00;;;;;25.61;53.80;101513.91;2404939;28;45360;-80
2022/08/24 09:14:43;;;;;;;;;3.50;3.50;;;;;25.63;53.08;101515.50;2412532;28;45417;-80
2022/08/24 09:16:12;;;;;;;;;7.00;4.25;;;;;25.66;53.51;101511.69;2402905;28;46612;-81
2022/08/24 09:17:44;;;;;;;;;3.00;3.00;;;;;25.67;52.51;101510.72;2412603;28;45168;-81
2022/08/24 09:19:25;;;;;;;;;3.00;3.00;;;;;25.72;52.93;101507.63;2412136;28;46866;-81
2022/08/24 09:20:41;;;;;;;;;3.50;3.50;;;;;25.73;52.97;101514.75;2412560;28;45149;-80
2022/08/24 09:22:08;;;;;;;;;4.00;3.00;;;;;25.73;52.58;101510.19;2408044;28;45907;-81
2022/08/24 09:23:59;;;;;;;;;3.75;3.75;;;;;25.77;52.89;101513.50;2405560;28;45458;-81
2022/08/24 09:25:42;;;;;;;;;4.00;3.00;;;;;25.77;52.80;101509.94;2407280;28;46520;-81
2022/08/24 09:27:11;;;;;;;;;4.00;4.00;;;;;25.79;52.32;101516.03;2383083;28;45223;-81
2022/08/24 09:28:40;;;;;;;;;2.00;2.00;;;;;25.79;52.26;101507.97;2412242;28;45281;-80
2022/08/24 09:30:19;;;;;;;;;2.50;2.50;;;;;25.83;52.58;101512.94;2412460;28;44856;-82
2022/08/24 09:32:17;;;;;;;;;3.00;3.00;;;;;25.85;52.27;101510.97;2411985;28;46352;-80
2022/08/24 09:33:40;;;;;;;;;3.00;2.50;;;;;25.88;52.47;101509.84;2386220;28;45515;-80
2022/08/24 09:35:08;;;;;;;;;3.50;2.25;;;;;25.91;52.74;101514.97;2404416;28;45631;-80
2022/08/24 09:36:18;;;;;;;;;3.50;3.25;;;;;25.94;52.08;101512.03;2412503;28;44755;-80
2022/08/24 09:38:06;;;;;;;;;4.00;3.25;;;;;25.96;52.32;101520.81;2412234;28;45362;-80
2022/08/24 09:39:44;;;;;;;;;3.75;3.75;;;;;25.98;52.47;101525.22;2403009;28;45450;-80